Hals, Denmark
Current Conditions -  °F | °C
As of 8:50 PM on Sunday 23 Nov 2014 (Local Time) from EKYT Reporting Station
Haze Haze  
Wind Chill: 39°   Ceiling: 700
Heat Index: 46°   Visibility: 2.1mi
Dew Point: 45°   Wind: 17mph
Humidity: 93%   Direction: 150°SSE
Pressure: 29.91"   Gusts: NA
Location:  57°N, 10.31°E
Report Text: EKYT 231950Z 15015KT 3500 BR OVC007 08/07 Q1013
Loading
Personal Weather Stations






























Interactive Weather Map New forecast layout! Learn more

10-Day Weather Forecast

Advertisements
Track Severe Weather on mobile